Pagrindinis puslapis
METAR-TAF:

METAR-TAF

Oro uostai :

Çardak, Turkija

platuma: 37-47N, ilguma: 029-42E, Aukštis: 849 m

Dabartinis oras

Ataskaita buvo paskelbta 1 valandą ir 11 minutes, ne 16:50 UTC
Vėjas 14 kt iš Šiaurės Rytų
Temperatūra 22°C
Drėgmė 25%
Slėgis 1017 hPa
Matomumas 10 km arba daugiau
nėra debesų žemiau 1500 m ir nėra kamuolinių lietaus debesų

METAR: LTAY 151650Z 05014KT CAVOK 22/01 Q1017

Laikas: 21:01 (18:01 UTC)

Prognozė

Ataskaita buvo paskelbta 1 valandą ir 21 minutes, ne 16:40 UTC
Prognozė galioja nuo 15 metu 18 UTC su 16 metu 03 UTC
Vėjas 17 kt iš Rytų/Šiaurės Rytų
Matomumas 10 km arba daugiau
nėra debesų žemiau 1500 m ir nėra kamuolinių lietaus debesų
Laikinai
nuo 15 metu 18 UTC su 15 metu 22 UTC
Vėjas 20 kt iš Rytų/Šiaurės Rytų su gūsio iki 30 kt
Tapsmas
nuo 15 metu 23 UTC su 16 metu 02 UTC
Vėjas 2 kt nuo kintamojo kryptimis

TAF: LTAY 151640Z 1518/1603 06017KT CAVOK TEMPO 1518/1522 06020G30KT BECMG 1523/1602 VRB02KT

Orai ataskaitas ir orų prognozės (METAR, TAF).

turimą stotys yra geltonos ir raudonos taškus žemėlapyje.

Perkelti pele per norėdami pamatyti stoties vardą.

Tada spustelėkite, norėdami matyti oro stebėjimo ir prognozės.

Norėdami pakeisti žemėlapį: spustelėkite ant žalios mygtukų su juodo kryžiaus žemyn,; žalią mygtuką su brūkšneliu, jei norite nutolinti; arba žalių rodyklių gretimoms žemėlapius.


METAR-TAF: